Menu Close Menu
Station Historical Data
Daily Summary for June 14, 2017 Units:  Metric    English   Both
« Previous Day
Next Day »
Daily Weekly Monthly Yearly Custom
  High: Low: Average:
Temperature: 30.8 °C 20.3 °C 24.2 °C
Dew Point: 23.2 °C 19 °C 20.9 °C
Humidity: 94% 57% 83%
Wind Speed: 1.6km/h 0km/h 0km/h
Wind Gust: 9.7km/h - -
Wind- - SSW
Pressure: 1018.8 hPa 1014.8 hPa -
Precipitation: 32.77 mm    
Historical Graphs
 
 
Tabular Data for June 14, 2017
Time Temperature Dew Point Pressure Wind Wind Speed Wind Gust Humidity Rainfall Rate (Hourly) solar Conditions
00:00 20.3 °C 19 °C 1017.8 hPa Calm     92% 0 mm WeatherDisplay:10.37 W/m2 RA
00:10 20.4 °C 19.1 °C 1017.8 hPa Calm     92% 0 mm WeatherDisplay:10.37 W/m2 CLR
00:20 20.6 °C 19.2 °C 1017.5 hPa Calm     92% 0 mm WeatherDisplay:10.37 W/m2 CLR
00:30 20.8 °C 19.6 °C 1017.8 hPa Calm     93% 0 mm WeatherDisplay:10.37 W/m2 CLR
00:40 20.8 °C 19.4 °C 1018.2 hPa Calm     92% 0 mm WeatherDisplay:10.37 W/m2 CLR
00:50 20.7 °C 19.4 °C 1017.8 hPa Calm     92% 0 mm WeatherDisplay:10.37 W/m2 CLR
01:00 20.8 °C 19.6 °C 1017.5 hPa Calm     93% 0 mm WeatherDisplay:10.37 W/m2 CLR
01:10 20.8 °C 19.6 °C 1017.5 hPa Calm     93% 0 mm WeatherDisplay:10.37 W/m2 CLR
01:20 20.8 °C 19.6 °C 1017.2 hPa Calm     93% 0 mm WeatherDisplay:10.37 W/m2 CLR
01:30 20.8 °C 19.7 °C 1016.8 hPa Calm     93% 0 mm WeatherDisplay:10.37 W/m2 CLR
01:40 20.8 °C 19.7 °C 1016.8 hPa Calm     93% 0 mm WeatherDisplay:10.37 W/m2 CLR
01:50 20.8 °C 19.7 °C 1016.8 hPa Calm     93% 0 mm WeatherDisplay:10.37 W/m2 CLR
02:00 20.8 °C 19.6 °C 1016.8 hPa Calm     93% 0 mm WeatherDisplay:10.37 W/m2 CLR
02:10 20.8 °C 19.6 °C 1016.8 hPa Calm     93% 0 mm WeatherDisplay:10.37 W/m2 CLR
02:20 20.8 °C 19.6 °C 1016.8 hPa Calm     93% 0 mm WeatherDisplay:10.37 W/m2 CLR
02:30 20.8 °C 19.6 °C 1016.5 hPa Calm     93% 0 mm WeatherDisplay:10.37 W/m2 CLR
02:40 20.8 °C 19.7 °C 1016.5 hPa Calm     93% 0 mm WeatherDisplay:10.37 W/m2 CLR
02:50 20.9 °C 19.7 °C 1016.5 hPa Calm     93% 0 mm WeatherDisplay:10.37 W/m2 CLR
03:00 20.9 °C 19.8 °C 1016.5 hPa Calm     93% 0 mm WeatherDisplay:10.37 W/m2 CLR
03:10 21.1 °C 19.9 °C 1016.5 hPa Calm     93% 0 mm WeatherDisplay:10.37 W/m2 CLR
03:20 21 °C 19.8 °C 1016.5 hPa Calm     93% 0 mm WeatherDisplay:10.37 W/m2 CLR
03:30 20.9 °C 19.7 °C 1016.1 hPa Calm     93% 0 mm WeatherDisplay:10.37 W/m2 CLR
03:40 20.6 °C 19.3 °C 1016.1 hPa Calm     92% 0 mm WeatherDisplay:10.37 W/m2 CLR
03:50 20.6 °C 19.3 °C 1016.1 hPa Calm     92% 0 mm WeatherDisplay:10.37 W/m2 CLR
04:00 20.6 °C 19.3 °C 1016.1 hPa Calm     92% 0 mm WeatherDisplay:10.37 W/m2 CLR
04:10 20.6 °C 19.3 °C 1016.5 hPa Calm     92% 0 mm WeatherDisplay:10.37 W/m2 CLR
04:20 20.6 °C 19.3 °C 1016.5 hPa Calm     92% 0 mm WeatherDisplay:10.37 W/m2 CLR
04:30 20.6 °C 19.3 °C 1016.5 hPa Calm     92% 0 mm WeatherDisplay:10.37 W/m2 CLR
04:40 20.6 °C 19.3 °C 1016.5 hPa Calm     92% 0 mm WeatherDisplay:10.37 W/m2 CLR
04:50 20.6 °C 19.3 °C 1016.5 hPa Calm     92% 0 mm WeatherDisplay:10.37 W/m2 CLR
05:00 20.6 °C 19.3 °C 1016.5 hPa Calm     92% 0 mm WeatherDisplay:10.37 W/m2 CLR
05:10 20.6 °C 19.3 °C 1016.5 hPa Calm     92% 0 mm WeatherDisplay:10.37 W/m2 CLR
05:20 20.6 °C 19.3 °C 1016.8 hPa Calm     92% 0 mm WeatherDisplay:10.37 W/m2 CLR
05:30 20.6 °C 19.3 °C 1016.8 hPa Calm     92% 0 mm WeatherDisplay:10.37 W/m2 CLR
05:40 20.6 °C 19.3 °C 1016.8 hPa Calm     92% 0 mm WeatherDisplay:10.37 W/m2 CLR
05:50 20.6 °C 19.3 °C 1017.2 hPa Calm     92% 0 mm WeatherDisplay:10.37 W/m2 CLR
06:00 20.6 °C 19.3 °C 1017.2 hPa Calm     92% 0 mm WeatherDisplay:10.37 W/m2 CLR
06:10 20.6 °C 19.3 °C 1017.2 hPa Calm     92% 0 mm WeatherDisplay:10.37 W/m2 CLR
06:20 20.6 °C 19.3 °C 1017.5 hPa Calm     92% 0 mm WeatherDisplay:10.37 W/m2 CLR
06:30 20.6 °C 19.3 °C 1017.5 hPa Calm     92% 0 mm WeatherDisplay:10.37 W/m2 CLR
06:40 20.6 °C 19.3 °C 1017.5 hPa Calm     92% 0 mm WeatherDisplay:10.37 W/m2 CLR
06:50 20.6 °C 19.3 °C 1017.8 hPa Calm     92% 0 mm WeatherDisplay:10.37 W/m2 CLR
07:00 20.6 °C 19.3 °C 1017.8 hPa Calm     92% 0 mm WeatherDisplay:10.37 W/m2 CLR
07:10 20.6 °C 19.3 °C 1017.8 hPa Calm     92% 0 mm WeatherDisplay:10.37 W/m2 CLR
07:20 20.6 °C 19.3 °C 1017.8 hPa Calm     92% 0 mm WeatherDisplay:10.37 W/m2 CLR
07:30 20.6 °C 19.3 °C 1018.2 hPa Calm     92% 0 mm WeatherDisplay:10.37 W/m2 CLR
07:40 20.6 °C 19.3 °C 1018.2 hPa Calm     92% 0 mm WeatherDisplay:10.37 W/m2 CLR
07:50 21.2 °C 20.2 °C 1018.2 hPa Calm     94% 0 mm WeatherDisplay:10.37 W/m2 CLR
08:00 21.4 °C 20.4 °C 1018.2 hPa Calm     94% 0 mm WeatherDisplay:10.37 W/m2 CLR
08:10 21.7 °C 20.7 °C 1018.2 hPa Calm     94% 0 mm WeatherDisplay:10.37 W/m2 CLR
08:20 21.9 °C 20.9 °C 1018.2 hPa Calm     94% 0 mm WeatherDisplay:10.37 W/m2 CLR
08:30 22.2 °C 21.2 °C 1018.5 hPa Calm     94% 0 mm WeatherDisplay:10.37 W/m2 CLR
08:40 22.3 °C 21.2 °C 1018.5 hPa Calm     94% 0 mm WeatherDisplay:10.37 W/m2 CLR
08:50 22.6 °C 21.6 °C 1018.5 hPa Calm   1.6 km/h 94% 0 mm WeatherDisplay:10.37 W/m2 CLR
09:00 22.6 °C 21.6 °C 1018.5 hPa Calm     94% 0 mm WeatherDisplay:10.37 W/m2 CLR
09:10 22.7 °C 21.7 °C 1018.8 hPa Calm   3.2 km/h 94% 0 mm WeatherDisplay:10.37 W/m2 CLR
09:20 23 °C 22 °C 1018.8 hPa Calm   1.6 km/h 94% 0 mm WeatherDisplay:10.37 W/m2 CLR
09:30 23.2 °C 22 °C 1018.8 hPa Calm   1.6 km/h 93% 0 mm WeatherDisplay:10.37 W/m2 CLR
09:40 23.4 °C 22.1 °C 1018.8 hPa Calm   4.8 km/h 92% 0 mm WeatherDisplay:10.37 W/m2 CLR
09:50 23.8 °C 21.9 °C 1018.8 hPa Calm   3.2 km/h 89% 0.25 mm WeatherDisplay:10.37 W/m2 CLR
10:00 24.2 °C 22.3 °C 1018.5 hPa Calm   1.6 km/h 89% 0 mm WeatherDisplay:10.37 W/m2 CLR
10:10 24.9 °C 22.4 °C 1018.8 hPa Calm   1.6 km/h 86% 0 mm WeatherDisplay:10.37 W/m2 CLR
10:20 25.6 °C 22.6 °C 1018.5 hPa Calm   3.2 km/h 84% 0 mm WeatherDisplay:10.37 W/m2 CLR
10:30 26 °C 22.7 °C 1018.8 hPa Calm   4.8 km/h 82% 0 mm WeatherDisplay:10.37 W/m2 CLR
10:40 26.3 °C 22.8 °C 1018.8 hPa Calm   1.6 km/h 81% 0 mm WeatherDisplay:10.37 W/m2 CLR
10:50 26.5 °C 22.9 °C 1018.8 hPa Calm   3.2 km/h 81% 0 mm WeatherDisplay:10.37 W/m2 CLR
11:00 26.4 °C 22.5 °C 1018.5 hPa SW 1.6 km/h 4.8 km/h 79% 0 mm WeatherDisplay:10.37 W/m2 CLR
11:10 26.6 °C 22.6 °C 1018.5 hPa Calm   3.2 km/h 79% 0 mm WeatherDisplay:10.37 W/m2 CLR
11:20 26.7 °C 22.6 °C 1018.5 hPa WSW 1.6 km/h 4.8 km/h 78% 0 mm WeatherDisplay:10.37 W/m2 CLR
11:30 27.1 °C 22.2 °C 1018.5 hPa Calm   3.2 km/h 75% 0 mm WeatherDisplay:10.37 W/m2 CLR
11:40 27.2 °C 22.4 °C 1018.5 hPa SW 1.6 km/h 3.2 km/h 75% 0 mm WeatherDisplay:10.37 W/m2 CLR
11:50 27.4 °C 22.8 °C 1018.5 hPa Calm   8 km/h 76% 0 mm WeatherDisplay:10.37 W/m2 CLR
12:00 27.3 °C 22.4 °C 1018.2 hPa Calm   3.2 km/h 75% 0 mm WeatherDisplay:10.37 W/m2 CLR
12:10 27.3 °C 22.7 °C 1018.2 hPa Calm   1.6 km/h 76% 0 mm WeatherDisplay:10.37 W/m2 CLR
12:20 27 °C 21.5 °C 1018.2 hPa Calm   8 km/h 72% 0 mm WeatherDisplay:10.37 W/m2 CLR
12:30 27.7 °C 22.4 °C 1018.2 hPa Calm   4.8 km/h 73% 0 mm WeatherDisplay:10.37 W/m2 CLR
12:40 28.6 °C 22.6 °C 1017.8 hPa Calm   1.6 km/h 70% 0 mm WeatherDisplay:10.37 W/m2 CLR
12:50 29.1 °C 23.1 °C 1017.8 hPa Calm   3.2 km/h 70% 0 mm WeatherDisplay:10.37 W/m2 CLR
13:00 29.4 °C 23.2 °C 1017.5 hPa Calm   3.2 km/h 69% 0 mm WeatherDisplay:10.37 W/m2 CLR
13:10 29.8 °C 22.3 °C 1017.5 hPa Calm   3.2 km/h 64% 0 mm WeatherDisplay:10.37 W/m2 CLR
13:20 30.3 °C 23 °C 1017.5 hPa WSW 1.6 km/h 3.2 km/h 65% 0 mm WeatherDisplay:10.37 W/m2 CLR
13:30 30.2 °C 21.8 °C 1017.5 hPa Calm   3.2 km/h 61% 0 mm WeatherDisplay:10.37 W/m2 CLR
13:40 30.4 °C 22.3 °C 1017.5 hPa Calm   1.6 km/h 62% 0 mm WeatherDisplay:10.37 W/m2 CLR
13:50 30.1 °C 22 °C 1017.2 hPa Calm   1.6 km/h 62% 0 mm WeatherDisplay:10.37 W/m2 CLR
14:00 29.7 °C 23.1 °C 1017.2 hPa Calm   1.6 km/h 68% 0 mm WeatherDisplay:10.37 W/m2 CLR
14:10 30.4 °C 22.3 °C 1016.8 hPa Calm   3.2 km/h 62% 0 mm WeatherDisplay:10.37 W/m2 CLR
14:20 30.8 °C 21.9 °C 1016.5 hPa Calm   1.6 km/h 59% 0 mm WeatherDisplay:10.37 W/m2 CLR
14:30 30.5 °C 21.3 °C 1016.5 hPa Calm   4.8 km/h 58% 0 mm WeatherDisplay:10.37 W/m2 CLR
14:40 30.4 °C 21.8 °C 1016.5 hPa Calm   1.6 km/h 60% 0 mm WeatherDisplay:10.37 W/m2 CLR
14:50 30.3 °C 20.9 °C 1016.1 hPa Calm   3.2 km/h 57% 0 mm WeatherDisplay:10.37 W/m2 CLR
15:00 30.1 °C 21.7 °C 1016.1 hPa Calm   3.2 km/h 61% 0 mm WeatherDisplay:10.37 W/m2 CLR
15:10 29.5 °C 22.2 °C 1015.8 hPa Calm     65% 0 mm WeatherDisplay:10.37 W/m2 CLR
15:20 29.6 °C 21.2 °C 1015.8 hPa Calm   3.2 km/h 61% 0 mm WeatherDisplay:10.37 W/m2 CLR
15:30 29.6 °C 21.8 °C 1015.8 hPa Calm   1.6 km/h 63% 0 mm WeatherDisplay:10.37 W/m2 CLR
15:50 29.9 °C 22.3 °C 1015.8 hPa Calm   1.6 km/h 64% 0 mm WeatherDisplay:10.37 W/m2 CLR
16:00 29.3 °C 23 °C 1015.8 hPa Calm   1.6 km/h 69% 0 mm WeatherDisplay:10.37 W/m2 CLR
16:10 28.7 °C 22.4 °C 1015.5 hPa Calm     69% 0 mm WeatherDisplay:10.37 W/m2 CLR
16:20 28.4 °C 22.2 °C 1015.5 hPa Calm   1.6 km/h 69% 0 mm WeatherDisplay:10.37 W/m2 CLR
16:30 28.5 °C 22.9 °C 1015.5 hPa Calm   1.6 km/h 72% 0 mm WeatherDisplay:10.37 W/m2 CLR
16:40 28.3 °C 22.3 °C 1015.1 hPa Calm   3.2 km/h 70% 0 mm WeatherDisplay:10.37 W/m2 CLR
16:50 28 °C 22.2 °C 1015.1 hPa Calm     71% 0 mm WeatherDisplay:10.37 W/m2 CLR
17:00 27.6 °C 21.6 °C 1015.1 hPa Calm   1.6 km/h 70% 0 mm WeatherDisplay:10.37 W/m2 CLR
17:10 27.6 °C 22.1 °C 1015.1 hPa Calm     72% 0 mm WeatherDisplay:10.37 W/m2 CLR
17:20 27.4 °C 21.9 °C 1015.5 hPa Calm     72% 0 mm WeatherDisplay:10.37 W/m2 CLR
17:30 27.2 °C 22.1 °C 1015.1 hPa Calm   1.6 km/h 74% 0 mm WeatherDisplay:10.37 W/m2 CLR
17:40 27 °C 21.9 °C 1015.1 hPa Calm   1.6 km/h 74% 0 mm WeatherDisplay:10.37 W/m2 CLR
17:50 27 °C 22.2 °C 1015.1 hPa Calm     75% 0 mm WeatherDisplay:10.37 W/m2 CLR
18:00 27.3 °C 22.1 °C 1015.1 hPa Calm   1.6 km/h 73% 0 mm WeatherDisplay:10.37 W/m2 CLR
18:10 28.1 °C 22.3 °C 1014.8 hPa Calm   1.6 km/h 71% 0 mm WeatherDisplay:10.37 W/m2 CLR
18:20 28.4 °C 22.6 °C 1014.8 hPa Calm   1.6 km/h 71% 0 mm WeatherDisplay:10.37 W/m2 CLR
18:30 28.4 °C 22.4 °C 1014.8 hPa Calm   1.6 km/h 70% 0 mm WeatherDisplay:10.37 W/m2 CLR
18:40 28.6 °C 22.8 °C 1014.8 hPa Calm     71% 0 mm WeatherDisplay:10.37 W/m2 CLR
18:50 28.5 °C 22.9 °C 1014.8 hPa Calm   1.6 km/h 72% 0 mm WeatherDisplay:10.37 W/m2 CLR
19:00 28.4 °C 22.6 °C 1014.8 hPa Calm     71% 0 mm WeatherDisplay:10.37 W/m2 CLR
19:10 28.2 °C 23.2 °C 1015.1 hPa Calm     74% 0 mm WeatherDisplay:10.37 W/m2 CLR
19:20 28.2 °C 22.7 °C 1015.1 hPa Calm     72% 0 mm WeatherDisplay:10.37 W/m2 CLR
19:30 28.1 °C 22.9 °C 1015.1 hPa Calm     74% 0 mm WeatherDisplay:10.37 W/m2 CLR
19:40 27.8 °C 22.8 °C 1015.1 hPa Calm     74% 0 mm WeatherDisplay:10.37 W/m2 CLR
19:50 27.7 °C 23.1 °C 1015.1 hPa Calm     76% 0 mm WeatherDisplay:10.37 W/m2 CLR
20:00 27.4 °C 23 °C 1015.5 hPa Calm   1.6 km/h 77% 0 mm WeatherDisplay:10.37 W/m2 CLR
20:10 27.1 °C 21.3 °C 1015.8 hPa Calm   1.6 km/h 71% 0 mm WeatherDisplay:10.37 W/m2 CLR
20:20 26.3 °C 21.7 °C 1016.1 hPa Calm   1.6 km/h 76% 0 mm WeatherDisplay:10.37 W/m2 CLR
20:30 25 °C 21.1 °C 1016.5 hPa Calm   9.7 km/h 79% 1.52 mm WeatherDisplay:10.37 W/m2 RA
20:40 22.8 °C 20.2 °C 1016.8 hPa ENE 1.6 km/h 8 km/h 85% 6.35 mm WeatherDisplay:10.37 W/m2 RA
20:50 21.9 °C 20.1 °C 1016.5 hPa Calm   3.2 km/h 89% 6.35 mm WeatherDisplay:10.37 W/m2 RA
21:00 21.6 °C 19.8 °C 1016.5 hPa Calm   1.6 km/h 90% 5.59 mm WeatherDisplay:10.37 W/m2 RA
21:10 21.4 °C 19.9 °C 1017.2 hPa Calm   1.6 km/h 91% 4.57 mm WeatherDisplay:10.37 W/m2 RA
21:20 21.1 °C 19.6 °C 1017.2 hPa Calm   1.6 km/h 91% 4.06 mm WeatherDisplay:10.37 W/m2 RA
21:30 21 °C 19.4 °C 1016.5 hPa Calm   1.6 km/h 91% 2.54 mm WeatherDisplay:10.37 W/m2 RA
21:40 20.9 °C 19.6 °C 1016.5 hPa Calm   1.6 km/h 92% 1.02 mm WeatherDisplay:10.37 W/m2 CLR
21:50 20.7 °C 19.4 °C 1016.5 hPa Calm     92% 0 mm WeatherDisplay:10.37 W/m2 CLR
22:00 20.6 °C 19.2 °C 1016.5 hPa Calm   1.6 km/h 92% 0.25 mm WeatherDisplay:10.37 W/m2 CLR
22:10 20.5 °C 19.2 °C 1016.1 hPa Calm     92% 0 mm WeatherDisplay:10.37 W/m2 CLR
22:20 20.5 °C 19.2 °C 1016.5 hPa Calm   1.6 km/h 92% 0 mm WeatherDisplay:10.37 W/m2 CLR
22:30 20.4 °C 19.1 °C 1016.5 hPa Calm     92% 0 mm WeatherDisplay:10.37 W/m2 CLR
22:40 20.4 °C 19.1 °C 1016.5 hPa Calm     92% 0 mm WeatherDisplay:10.37 W/m2 CLR
22:50 20.4 °C 19.1 °C 1016.5 hPa Calm   1.6 km/h 92% 0 mm WeatherDisplay:10.37 W/m2 CLR
23:00 20.4 °C 19.3 °C 1016.5 hPa Calm   1.6 km/h 93% 0 mm WeatherDisplay:10.37 W/m2 CLR
23:10 20.4 °C 19.2 °C 1016.8 hPa Calm     93% 0 mm WeatherDisplay:10.37 W/m2 CLR
23:20 20.3 °C 19.2 °C 1016.8 hPa Calm   1.6 km/h 93% 0 mm WeatherDisplay:10.37 W/m2 CLR
23:30 20.3 °C 19.2 °C 1016.5 hPa Calm     93% 0 mm WeatherDisplay:10.37 W/m2 CLR
23:40 20.3 °C 19.2 °C 1016.5 hPa Calm     93% 0 mm WeatherDisplay:10.37 W/m2 CLR
23:50 20.3 °C 19.2 °C 1016.5 hPa Calm     93% 0 mm WeatherDisplay:10.37 W/m2 CLR
Piedmont Bend
Compliments of Weather Underground - 4 mb